createdAt,value
2023-12-11T00:00:27.055Z,10.20
2023-12-11T00:02:53.644Z,10.20
2023-12-11T00:05:20.287Z,10.20
2023-12-11T00:07:46.943Z,9.70
2023-12-11T00:10:13.653Z,10.20
2023-12-11T00:12:40.384Z,10.20
2023-12-11T00:15:07.529Z,10.20
2023-12-11T00:17:34.373Z,10.10
2023-12-11T00:20:01.206Z,10.20
2023-12-11T00:22:27.800Z,10.20
2023-12-11T00:24:54.574Z,10.10
2023-12-11T00:27:21.204Z,10.00
2023-12-11T00:29:47.811Z,10.10
2023-12-11T00:32:14.477Z,10.10
2023-12-11T00:34:41.281Z,10.00
2023-12-11T00:37:08.048Z,10.10
2023-12-11T00:39:34.808Z,10.10
2023-12-11T00:42:01.475Z,10.10
2023-12-11T00:44:28.063Z,10.10
2023-12-11T00:46:54.692Z,10.10
2023-12-11T00:49:21.424Z,10.10
2023-12-11T00:51:53.814Z,10.10
2023-12-11T00:54:20.739Z,10.10
2023-12-11T00:56:47.379Z,10.00
2023-12-11T00:59:14.065Z,10.00
2023-12-11T01:01:41.049Z,9.90
2023-12-11T01:04:07.872Z,9.90
2023-12-11T01:06:34.556Z,9.80
2023-12-11T01:09:01.257Z,9.70
2023-12-11T01:11:27.860Z,9.70
2023-12-11T01:13:54.473Z,9.60
2023-12-11T01:16:21.732Z,9.60
2023-12-11T01:18:48.401Z,9.70
2023-12-11T01:21:15.074Z,9.80
2023-12-11T01:23:41.750Z,9.80
2023-12-11T01:26:08.443Z,10.20
2023-12-11T01:28:35.351Z,9.90
2023-12-11T01:31:02.155Z,10.00
2023-12-11T01:33:28.797Z,10.00
2023-12-11T01:35:55.428Z,9.90
2023-12-11T01:38:22.008Z,10.00
2023-12-11T01:40:49.021Z,10.00
2023-12-11T01:43:19.989Z,10.10
2023-12-11T01:46:00.301Z,10.10
2023-12-11T01:48:27.068Z,10.10
2023-12-11T01:50:53.781Z,10.10
2023-12-11T01:53:20.581Z,10.10
2023-12-11T01:55:49.628Z,10.20
2023-12-11T01:58:17.657Z,10.20
2023-12-11T02:00:44.835Z,10.20
2023-12-11T02:03:11.575Z,10.20
2023-12-11T02:05:39.081Z,10.20
2023-12-11T02:08:05.807Z,10.20
2023-12-11T02:10:32.451Z,10.20
2023-12-11T02:12:59.173Z,10.00
2023-12-11T02:15:42.475Z,10.00
2023-12-11T02:18:10.574Z,10.00
2023-12-11T02:20:39.400Z,10.00
2023-12-11T02:23:10.625Z,9.90
2023-12-11T02:25:38.590Z,9.90
2023-12-11T02:28:05.743Z,9.80
2023-12-11T02:30:36.638Z,9.80
2023-12-11T02:33:03.421Z,9.80
2023-12-11T02:35:30.062Z,9.70
2023-12-11T02:37:56.728Z,9.70
2023-12-11T02:40:23.315Z,9.70
2023-12-11T02:42:50.080Z,9.70
2023-12-11T02:45:16.975Z,9.70
2023-12-11T02:47:43.663Z,9.70
2023-12-11T02:50:10.585Z,9.60
2023-12-11T02:52:37.210Z,9.60
2023-12-11T02:55:03.961Z,9.60
2023-12-11T02:57:30.898Z,9.50
2023-12-11T02:59:57.778Z,9.60
2023-12-11T03:02:24.392Z,9.70
2023-12-11T03:04:51.009Z,9.70
2023-12-11T03:07:17.757Z,9.80
2023-12-11T03:09:44.504Z,9.80
2023-12-11T03:12:11.291Z,9.80
2023-12-11T03:14:37.912Z,9.80
2023-12-11T03:17:04.677Z,9.90
2023-12-11T03:19:34.318Z,9.90
2023-12-11T03:22:01.149Z,10.00
2023-12-11T03:24:27.763Z,10.00
2023-12-11T03:26:54.374Z,10.10
2023-12-11T03:29:20.995Z,10.10
2023-12-11T03:31:48.130Z,10.10
2023-12-11T03:34:14.829Z,10.00
2023-12-11T03:36:41.513Z,10.00
2023-12-11T03:39:08.767Z,10.00
2023-12-11T03:41:35.378Z,10.10
2023-12-11T03:44:02.056Z,10.10
2023-12-11T03:46:28.707Z,10.10
2023-12-11T03:48:55.406Z,10.10
2023-12-11T03:51:22.244Z,10.20
2023-12-11T03:53:48.867Z,10.10
2023-12-11T03:56:15.471Z,10.10
2023-12-11T03:58:42.095Z,10.10
2023-12-11T04:01:08.904Z,10.10
2023-12-11T04:03:35.697Z,10.00
2023-12-11T04:06:02.410Z,9.90
2023-12-11T04:08:29.028Z,9.90
2023-12-11T04:10:55.675Z,10.00
2023-12-11T04:13:22.260Z,10.00
2023-12-11T04:15:48.901Z,10.00
2023-12-11T04:18:15.581Z,10.00
2023-12-11T04:20:42.293Z,10.00
2023-12-11T04:23:08.960Z,10.00
2023-12-11T04:25:35.699Z,10.00
2023-12-11T04:28:02.349Z,10.00
2023-12-11T04:30:28.966Z,10.10
2023-12-11T04:32:55.635Z,10.10
2023-12-11T04:35:22.297Z,10.10
2023-12-11T04:37:48.878Z,10.20
2023-12-11T04:40:15.692Z,10.20
2023-12-11T04:42:42.344Z,10.20
2023-12-11T04:45:09.364Z,10.30
2023-12-11T04:47:36.009Z,10.30
2023-12-11T04:50:02.742Z,10.30
2023-12-11T04:52:29.412Z,10.30
2023-12-11T04:54:56.170Z,10.20
2023-12-11T04:57:22.830Z,10.20
2023-12-11T04:59:49.788Z,10.20
2023-12-11T05:02:16.396Z,10.20
2023-12-11T05:04:43.110Z,10.20
2023-12-11T05:07:09.773Z,10.20
2023-12-11T05:09:36.827Z,10.20
2023-12-11T05:12:03.829Z,10.30
2023-12-11T05:14:30.463Z,10.30
2023-12-11T05:16:57.085Z,10.30
2023-12-11T05:19:23.761Z,10.30
2023-12-11T05:21:50.408Z,10.30
2023-12-11T05:24:17.030Z,10.30
2023-12-11T05:26:43.658Z,10.10
2023-12-11T05:29:10.271Z,10.00
2023-12-11T05:31:36.894Z,9.90
2023-12-11T05:34:03.645Z,9.90
2023-12-11T05:36:30.307Z,10.00
2023-12-11T05:38:56.910Z,10.10
2023-12-11T05:41:23.573Z,10.00
2023-12-11T05:43:50.168Z,10.00
2023-12-11T05:46:16.803Z,10.00
2023-12-11T05:48:43.555Z,10.00
2023-12-11T05:51:10.404Z,9.90
2023-12-11T05:53:36.989Z,9.90
2023-12-11T05:56:03.737Z,9.80
2023-12-11T05:58:30.378Z,9.80
2023-12-11T06:00:57.304Z,9.80
2023-12-11T06:03:23.938Z,9.80
2023-12-11T06:05:56.286Z,9.80
2023-12-11T06:08:23.108Z,9.70
2023-12-11T06:10:49.967Z,9.60
2023-12-11T06:13:16.633Z,9.60
2023-12-11T06:15:43.780Z,9.50
2023-12-11T06:18:10.566Z,9.40
2023-12-11T06:20:37.290Z,9.40
2023-12-11T06:23:03.957Z,9.40
2023-12-11T06:25:30.555Z,9.40
2023-12-11T06:27:57.171Z,9.40
2023-12-11T06:30:23.959Z,9.40
2023-12-11T06:32:50.595Z,9.50
2023-12-11T06:35:17.409Z,9.50
2023-12-11T06:37:44.011Z,9.60
2023-12-11T06:40:10.816Z,9.50
2023-12-11T06:42:39.184Z,9.50
2023-12-11T06:45:08.498Z,9.50
2023-12-11T06:47:35.652Z,9.40
2023-12-11T06:50:02.501Z,9.40
2023-12-11T06:52:29.490Z,9.30
2023-12-11T06:54:56.143Z,9.20
2023-12-11T06:57:22.817Z,9.20
2023-12-11T06:59:50.456Z,9.20
2023-12-11T07:02:17.275Z,9.10
2023-12-11T07:04:44.066Z,9.10
2023-12-11T07:07:10.824Z,9.00
2023-12-11T07:09:37.529Z,8.90
2023-12-11T07:12:05.280Z,8.90
2023-12-11T07:14:31.946Z,8.90
2023-12-11T07:16:58.561Z,8.90
2023-12-11T07:19:25.237Z,8.90
2023-12-11T07:21:51.981Z,9.00
2023-12-11T07:24:18.835Z,9.00
2023-12-11T07:26:45.482Z,9.20
2023-12-11T07:29:12.173Z,9.20
2023-12-11T07:31:40.301Z,9.30
2023-12-11T07:34:06.997Z,9.30
2023-12-11T07:36:33.813Z,9.30
2023-12-11T07:39:00.456Z,9.40
2023-12-11T07:41:27.092Z,9.50
2023-12-11T07:43:53.712Z,9.50
2023-12-11T07:46:22.859Z,9.60
2023-12-11T07:48:49.769Z,9.70
2023-12-11T07:51:25.134Z,9.70
2023-12-11T07:53:52.041Z,9.70
2023-12-11T07:56:22.735Z,9.80
2023-12-11T07:58:50.221Z,9.70
2023-12-11T08:01:17.084Z,9.70
2023-12-11T08:03:44.504Z,9.80
2023-12-11T08:06:11.383Z,9.80
2023-12-11T08:08:44.266Z,9.90
2023-12-11T08:11:19.522Z,10.00
2023-12-11T08:13:46.160Z,10.10
2023-12-11T08:16:14.065Z,10.10
2023-12-11T08:18:42.580Z,8.00
2023-12-11T08:21:09.345Z,10.20
2023-12-11T08:23:36.035Z,10.30
2023-12-11T08:26:02.640Z,10.30
2023-12-11T08:28:29.229Z,10.40
2023-12-11T08:30:56.048Z,10.40
2023-12-11T08:33:22.722Z,10.40
2023-12-11T08:35:49.390Z,10.50
2023-12-11T08:38:17.629Z,10.70
2023-12-11T08:40:45.318Z,10.80
2023-12-11T08:43:13.605Z,10.80
2023-12-11T08:45:41.069Z,10.90
2023-12-11T08:48:07.899Z,10.90
2023-12-11T08:50:34.674Z,10.90
2023-12-11T08:53:01.939Z,10.90
2023-12-11T08:55:31.776Z,10.90
2023-12-11T08:57:58.762Z,10.90
2023-12-11T09:00:25.552Z,11.00
2023-12-11T09:02:52.265Z,11.00
2023-12-11T09:05:19.082Z,11.10
2023-12-11T09:07:46.193Z,11.10
2023-12-11T09:10:13.078Z,11.00
2023-12-11T09:12:40.011Z,11.00
2023-12-11T09:15:07.512Z,11.20
2023-12-11T09:17:34.498Z,11.10
2023-12-11T09:20:05.354Z,11.30
2023-12-11T09:22:32.220Z,11.40
2023-12-11T09:24:59.017Z,11.50
2023-12-11T09:27:25.726Z,11.50
2023-12-11T09:29:52.700Z,11.50
2023-12-11T09:32:19.305Z,11.40
2023-12-11T09:34:46.688Z,11.50
2023-12-11T09:37:13.774Z,12.20
2023-12-11T09:39:40.859Z,14.10
2023-12-11T09:42:09.625Z,15.90
2023-12-11T09:44:37.277Z,17.60
2023-12-11T09:47:11.676Z,18.90
2023-12-11T09:49:39.710Z,20.30
2023-12-11T09:52:06.558Z,21.50
2023-12-11T09:54:33.235Z,22.30
2023-12-11T09:57:00.547Z,22.60
2023-12-11T09:59:28.904Z,21.80
2023-12-11T10:01:55.826Z,20.90
2023-12-11T10:04:22.683Z,19.60
2023-12-11T10:06:53.101Z,18.60
2023-12-11T10:09:30.344Z,18.50
2023-12-11T10:12:01.494Z,19.00
2023-12-11T10:14:29.885Z,18.70
2023-12-11T10:16:56.803Z,18.40
2023-12-11T10:19:35.806Z,17.80
2023-12-11T10:22:02.791Z,17.00
2023-12-11T10:24:30.945Z,16.50
2023-12-11T10:26:58.581Z,15.90
2023-12-11T10:29:27.031Z,15.50
2023-12-11T10:32:01.925Z,15.20
2023-12-11T10:34:47.048Z,15.50
2023-12-11T10:37:15.106Z,15.40
2023-12-11T10:39:57.484Z,15.20
2023-12-11T10:42:24.827Z,14.90
2023-12-11T10:44:54.307Z,14.70
2023-12-11T10:47:22.158Z,14.60
2023-12-11T10:49:50.229Z,14.50
2023-12-11T10:52:17.999Z,14.50
2023-12-11T10:54:46.395Z,14.30
2023-12-11T10:57:15.460Z,14.20
2023-12-11T10:59:42.568Z,14.10
2023-12-11T11:02:10.990Z,14.10
2023-12-11T11:04:43.403Z,14.20
2023-12-11T11:07:26.855Z,14.10
2023-12-11T11:10:16.307Z,14.00
2023-12-11T11:12:42.901Z,14.00
2023-12-11T11:15:12.566Z,13.90
2023-12-11T11:17:59.601Z,13.90
2023-12-11T11:20:37.560Z,13.90
2023-12-11T11:23:16.516Z,13.90
2023-12-11T11:25:51.894Z,13.80
2023-12-11T11:28:42.423Z,13.80
2023-12-11T11:31:19.610Z,13.80
2023-12-11T11:33:54.300Z,13.70
2023-12-11T11:36:32.356Z,13.70
2023-12-11T11:39:02.889Z,13.60
2023-12-11T11:41:30.879Z,13.60
2023-12-11T11:44:08.024Z,13.70
2023-12-11T11:46:51.144Z,13.70
2023-12-11T11:49:29.089Z,13.70
2023-12-11T11:51:56.228Z,13.60
2023-12-11T11:54:24.685Z,13.60
2023-12-11T11:56:52.318Z,13.60
2023-12-11T11:59:20.289Z,13.60
2023-12-11T12:01:51.459Z,13.50
2023-12-11T12:04:31.024Z,13.50
2023-12-11T12:07:03.700Z,13.60
2023-12-11T12:09:32.039Z,13.60
2023-12-11T12:11:59.374Z,13.60
2023-12-11T12:14:29.070Z,13.60
2023-12-11T12:16:56.296Z,13.60
2023-12-11T12:19:31.489Z,13.50
2023-12-11T12:21:59.923Z,13.40
2023-12-11T12:24:27.226Z,13.40
2023-12-11T12:26:56.963Z,13.40
2023-12-11T12:29:23.986Z,13.40
2023-12-11T12:31:50.756Z,13.20
2023-12-11T12:34:18.443Z,13.40
2023-12-11T12:36:46.197Z,13.30
2023-12-11T12:39:19.590Z,13.30
2023-12-11T12:41:52.296Z,13.30
2023-12-11T12:44:20.695Z,13.20
2023-12-11T12:46:48.101Z,13.20
2023-12-11T12:49:18.506Z,13.20
2023-12-11T12:51:47.415Z,13.20
2023-12-11T12:54:14.291Z,13.20
2023-12-11T12:56:42.086Z,13.30
2023-12-11T12:59:09.098Z,13.40
2023-12-11T13:01:41.281Z,13.30
2023-12-11T13:04:09.762Z,13.30
2023-12-11T13:06:36.749Z,13.30
2023-12-11T13:09:04.637Z,13.20
2023-12-11T13:11:47.654Z,13.20
2023-12-11T13:14:14.806Z,13.20
2023-12-11T13:16:45.244Z,13.10
2023-12-11T13:19:13.961Z,13.10
2023-12-11T13:21:40.934Z,13.10
2023-12-11T13:24:07.949Z,13.10
2023-12-11T13:26:34.575Z,13.10
2023-12-11T13:29:01.208Z,13.10
2023-12-11T13:31:28.877Z,13.10
2023-12-11T13:33:55.690Z,13.10
2023-12-11T13:36:22.878Z,13.10
2023-12-11T13:38:50.174Z,13.10
2023-12-11T13:41:17.009Z,13.00
2023-12-11T13:43:43.691Z,13.90
2023-12-11T13:46:10.403Z,12.90
2023-12-11T13:48:38.012Z,12.90
2023-12-11T13:51:06.747Z,12.90
2023-12-11T13:53:33.770Z,12.90
2023-12-11T13:56:01.181Z,12.80
2023-12-11T13:58:28.537Z,12.80
2023-12-11T14:00:55.307Z,12.80
2023-12-11T14:03:22.318Z,12.80
2023-12-11T14:05:52.767Z,12.80
2023-12-11T14:08:19.633Z,12.90
2023-12-11T14:10:46.295Z,12.80
2023-12-11T14:13:15.850Z,12.80
2023-12-11T14:15:46.796Z,12.80
2023-12-11T14:18:14.257Z,12.80
2023-12-11T14:20:41.186Z,12.70
2023-12-11T14:23:08.039Z,12.60
2023-12-11T14:25:34.720Z,12.60
2023-12-11T14:28:05.526Z,12.50
2023-12-11T14:30:39.069Z,12.50
2023-12-11T14:33:07.405Z,12.50
2023-12-11T14:35:34.447Z,12.50
2023-12-11T14:38:01.192Z,12.40
2023-12-11T14:40:27.853Z,12.40
2023-12-11T14:42:54.737Z,12.40
2023-12-11T14:45:21.429Z,12.40
2023-12-11T14:47:48.239Z,12.30
2023-12-11T14:50:15.314Z,12.30
2023-12-11T14:52:42.882Z,12.30
2023-12-11T14:55:09.885Z,12.20
2023-12-11T14:57:37.868Z,12.20
2023-12-11T15:00:07.343Z,12.20
2023-12-11T15:02:34.495Z,12.20
2023-12-11T15:05:01.485Z,12.20
2023-12-11T15:07:28.886Z,12.10
2023-12-11T15:09:55.958Z,12.10
2023-12-11T15:12:23.962Z,12.00
2023-12-11T15:14:51.170Z,11.90
2023-12-11T15:17:17.914Z,11.90
2023-12-11T15:19:44.675Z,11.90
2023-12-11T15:22:11.666Z,11.80
2023-12-11T15:24:38.372Z,11.80
2023-12-11T15:27:05.276Z,11.70
2023-12-11T15:29:31.921Z,11.80
2023-12-11T15:31:58.666Z,11.70
2023-12-11T15:34:25.563Z,11.60
2023-12-11T15:36:52.290Z,11.60
2023-12-11T15:39:19.588Z,11.50
2023-12-11T15:41:46.233Z,11.50
2023-12-11T15:44:12.863Z,11.50
2023-12-11T15:46:42.044Z,11.50
2023-12-11T15:49:08.826Z,11.50
2023-12-11T15:51:35.619Z,11.50
2023-12-11T15:54:02.836Z,11.50
2023-12-11T15:56:32.828Z,11.50
2023-12-11T15:58:59.775Z,11.50
2023-12-11T16:01:27.219Z,11.50
2023-12-11T16:03:54.323Z,11.60
2023-12-11T16:06:21.099Z,11.60
2023-12-11T16:08:48.084Z,11.60
2023-12-11T16:11:17.996Z,11.50
2023-12-11T16:13:44.732Z,11.50
2023-12-11T16:16:14.923Z,11.50
2023-12-11T16:18:42.162Z,11.40
2023-12-11T16:21:08.982Z,13.90
2023-12-11T16:23:35.829Z,11.30
2023-12-11T16:26:05.393Z,11.20
2023-12-11T16:28:32.926Z,11.10
2023-12-11T16:30:59.710Z,11.00
2023-12-11T16:33:27.170Z,11.00
2023-12-11T16:35:53.851Z,10.90
2023-12-11T16:38:20.461Z,10.90
2023-12-11T16:40:47.876Z,10.90
2023-12-11T16:43:14.572Z,10.90
2023-12-11T16:45:45.415Z,10.90
2023-12-11T16:48:12.651Z,10.80
2023-12-11T16:50:39.668Z,10.80
2023-12-11T16:53:07.412Z,10.80
2023-12-11T16:55:34.096Z,10.90
2023-12-11T16:58:00.758Z,10.90
2023-12-11T17:00:27.417Z,11.00
2023-12-11T17:02:54.409Z,10.90
2023-12-11T17:05:21.230Z,11.00
2023-12-11T17:07:47.865Z,11.00
2023-12-11T17:10:15.690Z,11.10
2023-12-11T17:12:42.470Z,11.10
2023-12-11T17:15:09.991Z,11.20
2023-12-11T17:17:36.655Z,11.20
2023-12-11T17:20:05.257Z,11.20
2023-12-11T17:22:32.100Z,11.20
2023-12-11T17:25:00.554Z,11.20
2023-12-11T17:27:27.425Z,11.20
2023-12-11T17:29:54.081Z,11.20
2023-12-11T17:32:20.708Z,11.10
2023-12-11T17:34:47.425Z,11.10
2023-12-11T17:37:14.142Z,11.00
2023-12-11T17:39:40.763Z,11.00
2023-12-11T17:42:07.446Z,11.00
2023-12-11T17:44:34.060Z,11.00
2023-12-11T17:47:00.715Z,11.00
2023-12-11T17:49:27.468Z,11.00
2023-12-11T17:51:54.614Z,11.00
2023-12-11T17:54:22.952Z,10.90
2023-12-11T17:56:50.165Z,10.90
2023-12-11T17:59:16.983Z,10.90
2023-12-11T18:01:43.867Z,10.90
2023-12-11T18:04:11.545Z,11.00
2023-12-11T18:06:40.704Z,10.90
2023-12-11T18:09:07.379Z,10.90
2023-12-11T18:11:34.135Z,10.90
2023-12-11T18:14:00.813Z,10.90
2023-12-11T18:16:27.518Z,10.90
2023-12-11T18:18:54.319Z,10.80
2023-12-11T18:21:21.020Z,10.90
2023-12-11T18:23:47.641Z,10.90
2023-12-11T18:26:14.309Z,10.90
2023-12-11T18:28:41.259Z,10.90
2023-12-11T18:31:08.032Z,10.80
2023-12-11T18:33:34.774Z,10.80
2023-12-11T18:36:01.477Z,10.80
2023-12-11T18:38:28.153Z,10.80
2023-12-11T18:40:54.733Z,10.80
2023-12-11T18:43:23.535Z,10.70
2023-12-11T18:45:50.296Z,10.70
2023-12-11T18:48:16.994Z,10.70
2023-12-11T18:50:43.604Z,10.70
2023-12-11T18:53:10.364Z,10.60
2023-12-11T18:55:37.028Z,10.50
2023-12-11T18:58:03.704Z,10.50
2023-12-11T19:00:30.363Z,10.50
2023-12-11T19:02:57.130Z,10.50
2023-12-11T19:05:24.621Z,10.50
2023-12-11T19:07:53.193Z,10.50
2023-12-11T19:10:19.814Z,10.50
2023-12-11T19:12:46.611Z,10.50
2023-12-11T19:15:13.396Z,10.50
2023-12-11T19:17:40.045Z,10.50
2023-12-11T19:20:10.865Z,10.50
2023-12-11T19:22:37.603Z,10.50
2023-12-11T19:25:04.517Z,10.60
2023-12-11T19:27:31.410Z,10.60
2023-12-11T19:29:58.150Z,10.60
2023-12-11T19:32:24.892Z,10.50
2023-12-11T19:34:51.672Z,10.50
2023-12-11T19:37:18.324Z,10.50
2023-12-11T19:39:45.038Z,10.50
2023-12-11T19:42:11.647Z,10.50
2023-12-11T19:44:39.649Z,10.50
2023-12-11T19:47:06.444Z,10.60
2023-12-11T19:49:33.071Z,10.60
2023-12-11T19:51:59.733Z,10.60
2023-12-11T19:54:26.358Z,10.60
2023-12-11T19:56:52.964Z,10.60
2023-12-11T19:59:21.841Z,10.60
2023-12-11T20:01:50.289Z,10.60
2023-12-11T20:04:18.030Z,10.60
2023-12-11T20:06:44.950Z,10.60
2023-12-11T20:09:13.379Z,10.70
2023-12-11T20:11:40.179Z,10.70
2023-12-11T20:14:06.793Z,10.60
2023-12-11T20:16:33.455Z,10.60
2023-12-11T20:19:00.380Z,10.60
2023-12-11T20:21:27.035Z,10.60
2023-12-11T20:23:53.701Z,10.50
2023-12-11T20:26:22.415Z,10.50
2023-12-11T20:28:49.053Z,10.60
2023-12-11T20:31:16.989Z,10.50
2023-12-11T20:33:43.966Z,10.60
2023-12-11T20:36:17.945Z,10.50
2023-12-11T20:38:45.375Z,10.50
2023-12-11T20:41:25.777Z,10.50
2023-12-11T20:43:56.643Z,10.50
2023-12-11T20:46:25.203Z,10.40
2023-12-11T20:48:53.051Z,10.50
2023-12-11T20:51:20.557Z,10.50
2023-12-11T20:53:48.367Z,10.40
2023-12-11T20:56:22.337Z,10.40
2023-12-11T20:58:50.308Z,10.40
2023-12-11T21:01:40.134Z,10.40
2023-12-11T21:04:08.628Z,10.40
2023-12-11T21:06:35.860Z,10.40
2023-12-11T21:09:08.166Z,10.40
2023-12-11T21:11:38.554Z,10.40
2023-12-11T21:14:05.419Z,10.40
2023-12-11T21:16:34.691Z,10.40
2023-12-11T21:19:02.175Z,10.40
2023-12-11T21:21:29.048Z,10.40
2023-12-11T21:23:55.748Z,10.40
2023-12-11T21:26:24.220Z,10.40
2023-12-11T21:28:52.638Z,10.40
2023-12-11T21:31:24.418Z,10.40
2023-12-11T21:33:54.618Z,10.40
2023-12-11T21:36:28.418Z,10.40
2023-12-11T21:38:55.033Z,11.50
2023-12-11T21:41:21.756Z,10.40
2023-12-11T21:43:50.285Z,10.40
2023-12-11T21:46:17.829Z,10.40
2023-12-11T21:48:45.318Z,10.30
2023-12-11T21:51:19.683Z,10.30
2023-12-11T21:53:46.600Z,10.30
2023-12-11T21:56:14.344Z,10.20
2023-12-11T21:58:44.527Z,10.20
2023-12-11T22:01:11.627Z,10.20
2023-12-11T22:03:38.365Z,10.10
2023-12-11T22:06:05.415Z,10.00
2023-12-11T22:08:32.048Z,10.00
2023-12-11T22:10:58.639Z,10.00
2023-12-11T22:13:25.491Z,9.90
2023-12-11T22:15:52.179Z,9.90
2023-12-11T22:18:18.845Z,9.80
2023-12-11T22:20:45.516Z,9.80
2023-12-11T22:23:12.661Z,9.70
2023-12-11T22:25:39.326Z,9.60
2023-12-11T22:28:06.124Z,9.50
2023-12-11T22:30:32.827Z,9.40
2023-12-11T22:32:59.571Z,9.30
2023-12-11T22:35:26.195Z,9.20
2023-12-11T22:37:52.777Z,9.10
2023-12-11T22:40:19.533Z,9.00
2023-12-11T22:42:47.917Z,8.90
2023-12-11T22:45:15.607Z,8.90
2023-12-11T22:47:42.261Z,8.80
2023-12-11T22:50:09.425Z,8.70
2023-12-11T22:52:36.116Z,8.70
2023-12-11T22:55:03.087Z,8.60
2023-12-11T22:57:30.007Z,8.60
2023-12-11T22:59:56.841Z,8.60
2023-12-11T23:02:23.588Z,8.50
2023-12-11T23:04:50.354Z,8.50
2023-12-11T23:07:17.133Z,8.50
2023-12-11T23:09:43.804Z,8.50
2023-12-11T23:12:10.402Z,8.50
2023-12-11T23:14:37.001Z,8.60
2023-12-11T23:17:04.240Z,8.70
2023-12-11T23:19:31.003Z,8.80
2023-12-11T23:21:57.675Z,8.80
2023-12-11T23:24:24.261Z,8.90
2023-12-11T23:26:50.852Z,9.00
2023-12-11T23:29:17.459Z,9.00
2023-12-11T23:31:44.072Z,9.10
2023-12-11T23:34:10.748Z,9.20
2023-12-11T23:36:37.427Z,9.30
2023-12-11T23:39:04.065Z,9.30
2023-12-11T23:41:30.706Z,9.40
2023-12-11T23:43:57.413Z,9.50
2023-12-11T23:46:24.088Z,9.50
2023-12-11T23:48:51.126Z,9.50
2023-12-11T23:51:17.862Z,9.50
2023-12-11T23:53:45.705Z,9.60
2023-12-11T23:56:12.690Z,9.60
2023-12-11T23:58:39.411Z,9.60
